Time;durP1;ratioP1;P1;durP2;ratioP2;P2;SDS_P1;SDS_P2;PMS_P1;PMS_P2;Temp;Humidity;BMP_temperature;BMP_pressure;BME280_temperature;BME280_humidity;BME280_pressure;Samples;Min_cycle;Max_cycle;Signal;HPM_P1;HPM_P2
2024/01/08 00:00:20;;;;;;;5.53;5.03;;;;;;;-1.18;67.54;98769.03;5028398;28;20048;-74
2024/01/08 00:02:45;;;;;;;6.47;5.88;;;;;;;-1.14;68.12;98782.75;5033601;28;20091;-74
2024/01/08 00:05:10;;;;;;;5.25;4.47;;;;;;;-1.18;67.65;98778.75;5022577;28;20373;-74
2024/01/08 00:07:36;;;;;;;5.38;4.90;;;;;;;-1.18;67.52;98752.34;5031660;28;20045;-74
2024/01/08 00:10:01;;;;;;;5.88;5.30;;;;;;;-1.29;68.08;98769.28;5032047;28;20049;-74
2024/01/08 00:12:26;;;;;;;5.63;5.13;;;;;;;-1.15;68.21;98783.75;5035639;28;20048;-75
2024/01/08 00:14:52;;;;;;;5.70;5.20;;;;;;;-1.14;68.08;98782.75;5036268;28;20022;-74
2024/01/08 00:17:17;;;;;;;5.75;4.43;;;;;;;-1.46;67.98;98765.72;5039854;28;20037;-74
2024/01/08 00:19:43;;;;;;;5.82;5.20;;;;;;;-1.35;67.41;98766.47;5017624;28;20037;-73
2024/01/08 00:22:08;;;;;;;5.45;4.93;;;;;;;-1.42;66.84;98730.09;5038802;28;20037;-74
2024/01/08 00:24:33;;;;;;;5.85;5.10;;;;;;;-1.10;67.56;98782.31;5038856;28;20025;-73
2024/01/08 00:26:59;;;;;;;6.22;5.63;;;;;;;-1.01;67.72;98785.81;5037103;28;20041;-73
2024/01/08 00:29:24;;;;;;;5.80;5.20;;;;;;;-1.36;67.62;98759.50;5037662;28;20440;-74
2024/01/08 00:31:49;;;;;;;6.15;5.60;;;;;;;-1.24;67.73;98766.19;5032913;28;20041;-75
2024/01/08 00:34:15;;;;;;;6.30;5.70;;;;;;;-1.35;68.23;98766.47;5037347;28;20025;-74
2024/01/08 00:36:41;;;;;;;7.10;5.43;;;;;;;-1.27;68.22;98785.81;5013499;28;20037;-73
2024/01/08 00:39:09;;;;;;;6.28;5.30;;;;;;;-1.32;68.19;98776.69;5039081;28;20067;-73
2024/01/08 00:41:35;;;;;;;6.53;5.93;;;;;;;-1.38;68.57;98751.75;5036104;28;20114;-73
2024/01/08 00:44:00;;;;;;;6.60;5.97;;;;;;;-1.28;69.46;98783.34;5038207;28;20523;-74
2024/01/08 00:46:25;;;;;;;6.75;5.85;;;;;;;-1.24;69.58;98782.03;5006978;28;20033;-72
2024/01/08 00:48:51;;;;;;;6.78;5.65;;;;;;;-1.31;69.93;98783.66;5014996;28;20397;-74
2024/01/08 00:51:16;;;;;;;7.40;6.70;;;;;;;-1.29;69.15;98768.47;5020100;28;20087;-73
2024/01/08 00:53:41;;;;;;;6.45;5.85;;;;;;;-1.31;69.41;98778.34;5034472;28;20095;-73
2024/01/08 00:56:07;;;;;;;6.30;5.28;;;;;;;-1.34;69.60;98776.84;5039647;28;20037;-74
2024/01/08 00:58:32;;;;;;;6.55;5.88;;;;;;;-1.20;69.36;98770.16;5038569;28;20040;-74
2024/01/08 01:00:58;;;;;;;7.28;5.72;;;;;;;-1.29;69.43;98760.53;5020715;28;20041;-73
2024/01/08 01:03:23;;;;;;;6.45;5.10;;;;;;;-1.41;69.63;98783.75;5037296;28;20107;-74
2024/01/08 01:05:49;;;;;;;6.80;6.07;;;;;;;-1.24;69.50;98789.97;5019709;28;20417;-74
2024/01/08 01:08:14;;;;;;;7.53;5.90;;;;;;;-1.31;69.20;98778.34;5018923;28;20018;-73
2024/01/08 01:10:40;;;;;;;6.32;5.35;;;;;;;-1.35;69.29;98756.69;5020320;28;20032;-73
2024/01/08 01:13:05;;;;;;;6.47;5.47;;;;;;;-1.22;69.42;98782.72;5038094;28;20021;-74
2024/01/08 01:15:31;;;;;;;6.25;5.43;;;;;;;-1.32;69.02;98781.97;5036847;28;20412;-74
2024/01/08 01:17:56;;;;;;;5.80;5.30;;;;;;;-1.12;69.04;98783.44;5036904;28;20477;-73
2024/01/08 01:20:22;;;;;;;7.22;4.72;;;;;;;-1.26;68.64;98781.38;5037119;28;20037;-73
2024/01/08 01:22:47;;;;;;;5.60;4.88;;;;;;;-1.21;69.20;98779.09;5016156;28;20022;-74
2024/01/08 01:25:13;;;;;;;8.63;5.50;;;;;;;-1.13;68.57;98787.88;5035472;28;20034;-74
2024/01/08 01:27:38;;;;;;;6.60;5.75;;;;;;;-1.02;68.51;98792.06;5035645;28;20033;-74
2024/01/08 01:30:04;;;;;;;6.95;5.22;;;;;;;-1.24;69.32;98787.31;5038115;28;20036;-74
2024/01/08 01:32:30;;;;;;;6.50;5.90;;;;;;;-1.08;68.72;98795.34;5034651;28;20430;-74
2024/01/08 01:34:55;;;;;;;6.32;4.95;;;;;;;-1.19;68.23;98798.25;5036704;28;20108;-73
2024/01/08 01:37:20;;;;;;;6.32;5.72;;;;;;;-1.13;68.25;98806.38;5016465;28;20033;-74
2024/01/08 01:39:46;;;;;;;6.93;4.97;;;;;;;-1.27;68.61;98799.03;5037172;28;20033;-74
2024/01/08 01:42:11;;;;;;;6.97;6.13;;;;;;;-1.15;68.30;98797.78;5032378;28;20033;-74
2024/01/08 01:44:37;;;;;;;6.82;5.88;;;;;;;-1.15;68.09;98787.22;5020822;28;20400;-73
2024/01/08 01:47:02;;;;;;;6.30;5.70;;;;;;;-1.27;68.87;98795.56;5035283;28;20022;-75
2024/01/08 01:49:28;;;;;;;6.30;5.68;;;;;;;-1.29;68.92;98776.38;5034409;28;20033;-75
2024/01/08 01:51:54;;;;;;;6.95;5.65;;;;;;;-1.28;68.99;98778.06;5016325;28;20030;-74
2024/01/08 01:54:25;;;;;;;7.53;6.10;;;;;;;-1.26;68.93;98781.38;5004749;28;20425;-74
2024/01/08 01:56:53;;;;;;;6.80;6.15;;;;;;;-1.00;69.17;98787.44;5036079;28;20456;-73
2024/01/08 01:59:19;;;;;;;6.68;6.07;;;;;;;-1.21;68.94;98779.09;5012031;28;20036;-74
2024/01/08 02:01:45;;;;;;;7.30;6.53;;;;;;;-1.21;69.02;98773.81;5035857;28;20460;-74
2024/01/08 02:04:11;;;;;;;6.43;5.82;;;;;;;-1.15;69.14;98783.75;5034870;28;20663;-74
2024/01/08 02:06:37;;;;;;;6.57;5.93;;;;;;;-1.24;69.08;98768.81;5037953;28;20481;-74
2024/01/08 02:09:03;;;;;;;6.05;5.40;;;;;;;-1.37;68.87;98774.50;5043690;28;20013;-75
2024/01/08 02:11:28;;;;;;;5.68;5.18;;;;;;;-1.18;69.17;98784.03;5016678;28;20499;-75
2024/01/08 02:13:54;;;;;;;6.45;5.88;;;;;;;-1.13;69.30;98777.31;5038016;28;20032;-76
2024/01/08 02:16:19;;;;;;;5.72;5.22;;;;;;;-1.15;68.68;98791.66;5026361;28;20155;-75
2024/01/08 02:18:46;;;;;;;6.88;6.22;;;;;;;-1.08;69.40;98790.06;5031705;28;20109;-76
2024/01/08 02:21:11;;;;;;;7.13;5.55;;;;;;;-1.28;69.04;98772.78;5036630;28;20498;-71
2024/01/08 02:23:37;;;;;;;6.68;5.78;;;;;;;-1.09;69.51;98785.75;5047311;28;20021;-73
2024/01/08 02:26:02;;;;;;;6.90;6.30;;;;;;;-1.19;69.93;98771.84;5040740;28;20037;-74
2024/01/08 02:28:28;;;;;;;6.13;5.53;;;;;;;-1.12;69.19;98778.16;5043885;28;20092;-74
2024/01/08 02:30:55;;;;;;;6.90;6.25;;;;;;;-1.04;69.04;98775.53;5028391;28;20033;-74
2024/01/08 02:33:20;;;;;;;6.50;5.85;;;;;;;-1.02;69.09;98789.41;5044334;28;20032;-74
2024/01/08 02:35:46;;;;;;;6.38;5.70;;;;;;;-1.22;69.86;98777.44;5042289;28;20029;-73
2024/01/08 02:38:11;;;;;;;7.75;6.00;;;;;;;-1.20;69.08;98780.72;5028249;28;20438;-76
2024/01/08 02:40:36;;;;;;;6.25;5.65;;;;;;;-1.23;69.49;98759.91;5023526;28;20049;-75
2024/01/08 02:43:02;;;;;;;6.82;5.85;;;;;;;-1.27;69.60;98779.69;5045490;28;20029;-73
2024/01/08 02:45:27;;;;;;;6.93;6.22;;;;;;;-1.14;69.80;98795.94;5046789;28;20229;-74
2024/01/08 02:47:53;;;;;;;6.00;5.40;;;;;;;-1.33;70.12;98772.41;5050977;28;20047;-75
2024/01/08 02:50:18;;;;;;;7.40;6.25;;;;;;;-1.30;69.96;98780.00;5035990;28;20100;-75
2024/01/08 02:52:44;;;;;;;6.85;6.15;;;;;;;-1.38;69.59;98753.56;5043411;28;20048;-75
2024/01/08 02:55:10;;;;;;;6.70;6.10;;;;;;;-1.27;69.62;98791.09;5043577;28;20040;-75
2024/01/08 02:57:36;;;;;;;8.77;5.47;;;;;;;-1.38;70.04;98783.44;5024966;28;20024;-73
2024/01/08 03:00:04;;;;;;;7.25;6.22;;;;;;;-1.41;69.91;98779.28;5049635;28;20043;-73
2024/01/08 03:02:29;;;;;;;7.90;7.03;;;;;;;-1.26;69.62;98776.09;5046334;28;20378;-73
2024/01/08 03:04:54;;;;;;;7.65;6.03;;;;;;;-1.24;70.00;98784.69;5030264;28;20048;-73
2024/01/08 03:07:20;;;;;;;7.10;6.18;;;;;;;-1.15;69.60;98789.03;5028067;28;20048;-74
2024/01/08 03:09:46;;;;;;;6.63;4.97;;;;;;;-1.33;69.00;98790.91;5025991;28;20056;-75
2024/01/08 03:12:13;;;;;;;7.30;6.25;;;;;;;-1.02;69.19;98813.22;5049481;28;20021;-76
2024/01/08 03:14:38;;;;;;;6.05;5.38;;;;;;;-1.31;69.09;98799.50;5025851;28;20535;-75
2024/01/08 03:17:04;;;;;;;6.53;5.65;;;;;;;-1.33;69.31;98806.75;5031894;28;20024;-74
2024/01/08 03:19:29;;;;;;;6.85;6.15;;;;;;;-1.13;68.92;98802.91;5045017;28;20104;-74
2024/01/08 03:21:55;;;;;;;5.45;4.95;;;;;;;-1.38;69.30;98800.09;5046457;28;20021;-74
2024/01/08 03:24:20;;;;;;;6.60;5.90;;;;;;;-1.24;68.29;98797.88;5046784;28;20032;-74
2024/01/08 03:26:45;;;;;;;6.18;5.43;;;;;;;-1.36;68.84;98785.91;5037962;28;20029;-75
2024/01/08 03:29:11;;;;;;;6.57;5.97;;;;;;;-1.20;69.14;98807.16;5037648;28;20065;-74
2024/01/08 03:31:43;;;;;;;6.60;4.80;;;;;;;-1.35;68.60;98806.06;5043819;28;20060;-75
2024/01/08 03:34:08;;;;;;;6.57;5.90;;;;;;;-1.15;68.66;98826.03;5042905;28;20044;-76
2024/01/08 03:36:34;;;;;;;7.68;5.60;;;;;;;-1.45;68.49;98822.00;5034766;28;20021;-73
2024/01/08 03:38:59;;;;;;;7.75;6.85;;;;;;;-1.24;68.03;98805.81;5036589;28;20029;-73
2024/01/08 03:41:25;;;;;;;7.15;6.45;;;;;;;-1.33;68.85;98814.66;5037184;28;20033;-73
2024/01/08 03:43:50;;;;;;;6.82;6.20;;;;;;;-1.19;68.90;98832.59;5044846;28;20248;-74
2024/01/08 03:46:16;;;;;;;7.63;5.72;;;;;;;-1.42;69.42;98825.16;5033767;28;20109;-74
2024/01/08 03:48:42;;;;;;;6.45;5.85;;;;;;;-1.40;69.49;98810.00;5044529;28;20041;-75
2024/01/08 03:51:07;;;;;;;7.60;6.90;;;;;;;-1.45;69.40;98808.81;5032599;28;20037;-73
2024/01/08 03:53:32;;;;;;;7.70;6.97;;;;;;;-1.23;68.94;98831.22;5034586;28;20041;-74
2024/01/08 03:55:58;;;;;;;7.43;6.70;;;;;;;-1.29;69.30;98840.63;5032773;28;20032;-74
2024/01/08 03:58:24;;;;;;;8.40;7.60;;;;;;;-1.34;69.36;98816.47;5033603;28;20040;-74
2024/01/08 04:00:50;;;;;;;7.88;6.13;;;;;;;-1.57;69.46;98816.16;5043744;28;20487;-74
2024/01/08 04:03:15;;;;;;;7.82;6.95;;;;;;;-1.38;69.96;98838.91;5015764;28;21275;-75
2024/01/08 04:05:40;;;;;;;7.65;6.95;;;;;;;-1.30;69.78;98838.94;5031149;28;20118;-75
2024/01/08 04:08:06;;;;;;;7.88;7.18;;;;;;;-1.32;69.23;98824.22;5038988;28;20037;-74
2024/01/08 04:10:31;;;;;;;9.70;6.25;;;;;;;-1.35;68.85;98830.66;5037927;28;20051;-75
2024/01/08 04:12:57;;;;;;;7.65;6.60;;;;;;;-1.23;69.28;98839.16;5030932;28;20102;-73
2024/01/08 04:15:22;;;;;;;9.15;8.10;;;;;;;-1.20;69.24;98836.22;5043839;28;20036;-74
2024/01/08 04:17:47;;;;;;;8.23;6.28;;;;;;;-1.30;69.63;98836.31;5036700;28;20417;-74
2024/01/08 04:20:13;;;;;;;13.63;11.65;;;;;;;-1.23;68.84;98820.66;5040493;28;20014;-74
2024/01/08 04:22:38;;;;;;;8.35;7.38;;;;;;;-1.34;69.20;98816.47;5033101;28;20545;-73
2024/01/08 04:25:04;;;;;;;8.30;5.80;;;;;;;-1.51;69.20;98835.81;5041335;28;20094;-73
2024/01/08 04:27:30;;;;;;;7.53;6.80;;;;;;;-1.29;69.60;98830.06;5025512;28;20037;-75
2024/01/08 04:29:56;;;;;;;7.25;6.47;;;;;;;-1.47;69.63;98827.44;5028308;28;20473;-73
2024/01/08 04:32:21;;;;;;;7.75;7.05;;;;;;;-1.46;68.90;98818.53;5045035;28;20033;-75
2024/01/08 04:34:46;;;;;;;8.48;7.68;;;;;;;-1.57;68.96;98810.88;5048382;28;20523;-75
2024/01/08 04:37:12;;;;;;;8.18;7.28;;;;;;;-1.49;69.47;98834.69;5017520;28;20536;-74
2024/01/08 04:39:38;;;;;;;8.30;7.40;;;;;;;-1.49;69.47;98829.41;5023604;28;20104;-75
2024/01/08 04:42:04;;;;;;;8.75;6.28;;;;;;;-1.67;68.86;98825.94;5021001;28;20048;-75
2024/01/08 04:44:32;;;;;;;7.68;6.93;;;;;;;-1.61;69.21;98830.63;5044893;28;20029;-73
2024/01/08 04:46:58;;;;;;;7.70;6.45;;;;;;;-1.71;69.28;98851.00;5037643;28;20065;-75
2024/01/08 04:49:23;;;;;;;7.40;6.43;;;;;;;-1.61;69.71;98850.94;5022280;28;20021;-75
2024/01/08 04:51:50;;;;;;;9.18;6.03;;;;;;;-1.70;70.16;98847.38;5040426;28;20037;-75
2024/01/08 04:54:15;;;;;;;8.30;7.50;;;;;;;-1.58;69.99;98846.16;5014237;28;20032;-76
2024/01/08 04:56:41;;;;;;;8.20;7.20;;;;;;;-1.50;69.30;98859.44;5040946;28;20041;-73
2024/01/08 04:59:06;;;;;;;5.70;5.05;;;;;;;-1.81;69.06;98850.25;5039753;28;20049;-74
2024/01/08 05:01:38;;;;;;;6.75;6.07;;;;;;;-1.64;68.63;98859.16;5014486;28;20113;-73
2024/01/08 05:04:04;;;;;;;6.47;4.45;;;;;;;-2.03;67.76;98845.38;5011915;28;20037;-75
2024/01/08 05:06:29;;;;;;;6.43;5.10;;;;;;;-1.96;67.30;98843.81;5022341;28;20536;-73
2024/01/08 05:08:55;;;;;;;6.95;4.55;;;;;;;-2.06;67.11;98845.72;5047555;28;20112;-74
2024/01/08 05:11:20;;;;;;;6.53;5.38;;;;;;;-1.83;66.02;98854.00;5016395;28;20025;-75
2024/01/08 05:13:45;;;;;;;7.00;4.32;;;;;;;-1.88;66.01;98870.28;5028464;28;20037;-74
2024/01/08 05:16:11;;;;;;;6.90;4.35;;;;;;;-1.92;65.27;98868.94;5014460;28;20066;-73
2024/01/08 05:18:36;;;;;;;5.28;4.40;;;;;;;-2.13;64.25;98860.47;5044548;28;20404;-74
2024/01/08 05:21:05;;;;;;;5.60;4.50;;;;;;;-2.07;64.26;98857.22;5037764;28;20061;-74
2024/01/08 05:23:30;;;;;;;5.22;4.43;;;;;;;-2.11;64.50;98874.34;5044134;28;20074;-74
2024/01/08 05:25:59;;;;;;;5.88;4.88;;;;;;;-2.17;64.09;98867.03;5022718;28;20393;-73
2024/01/08 05:28:28;;;;;;;6.40;5.00;;;;;;;-2.05;64.17;98892.19;5023094;28;20045;-72
2024/01/08 05:30:53;;;;;;;5.05;4.55;;;;;;;-2.13;64.36;98897.41;5039353;28;20029;-74
2024/01/08 05:33:19;;;;;;;4.65;3.75;;;;;;;-2.41;64.39;98867.56;5047502;28;20083;-73
2024/01/08 05:35:44;;;;;;;5.07;4.57;;;;;;;-2.21;64.55;98881.47;5037598;28;20037;-73
2024/01/08 05:38:10;;;;;;;9.00;4.90;;;;;;;-2.23;64.48;98891.34;5030451;28;20116;-72
2024/01/08 05:40:36;;;;;;;7.63;4.22;;;;;;;-2.34;64.56;98883.63;5037428;28;20144;-75
2024/01/08 05:43:03;;;;;;;6.38;5.60;;;;;;;-2.12;65.02;98899.03;5024696;28;20041;-74
2024/01/08 05:45:29;;;;;;;5.80;3.97;;;;;;;-2.43;64.94;98889.78;5032860;28;20021;-75
2024/01/08 05:47:55;;;;;;;6.10;4.03;;;;;;;-2.43;64.89;98895.06;5033155;28;20040;-76
2024/01/08 05:50:25;;;;;;;5.90;4.38;;;;;;;-2.54;65.02;98893.41;5026562;28;20044;-75
2024/01/08 05:52:54;;;;;;;7.07;4.55;;;;;;;-2.57;65.19;98899.00;5018511;28;20074;-73
2024/01/08 05:55:20;;;;;;;7.20;5.85;;;;;;;-2.57;64.59;98861.25;5036383;28;20033;-74
2024/01/08 05:57:45;;;;;;;5.88;4.53;;;;;;;-2.69;64.64;98894.88;5038313;28;20432;-73
2024/01/08 06:00:12;;;;;;;7.40;4.93;;;;;;;-2.69;64.93;98904.59;5043424;28;20112;-73
2024/01/08 06:02:37;;;;;;;7.20;4.28;;;;;;;-2.87;65.14;98891.34;5024032;28;20045;-75
2024/01/08 06:05:02;;;;;;;8.35;5.53;;;;;;;-2.89;64.49;98888.00;5036191;28;20021;-73
2024/01/08 06:07:28;;;;;;;7.72;5.65;;;;;;;-2.90;64.65;98913.53;5019947;28;20128;-74
2024/01/08 06:09:53;;;;;;;8.27;5.30;;;;;;;-3.11;64.52;98920.78;5007827;28;20022;-72
2024/01/08 06:12:19;;;;;;;8.82;5.55;;;;;;;-3.24;65.14;98911.47;5024445;28;20059;-74
2024/01/08 06:14:44;;;;;;;7.22;6.15;;;;;;;-3.17;65.01;98899.41;5033511;28;20021;-75
2024/01/08 06:17:10;;;;;;;9.43;6.07;;;;;;;-3.30;65.01;98939.22;5046784;28;20044;-74
2024/01/08 06:19:35;;;;;;;7.55;5.28;;;;;;;-3.68;64.71;98921.59;5012507;28;20751;-73
2024/01/08 06:22:01;;;;;;;7.32;5.47;;;;;;;-3.58;64.65;98938.25;5029492;28;20095;-73
2024/01/08 06:24:26;;;;;;;9.05;5.20;;;;;;;-3.81;65.07;98923.69;5040506;28;20025;-73
2024/01/08 06:26:51;;;;;;;8.70;6.28;;;;;;;-3.68;64.73;98924.25;5044812;28;20039;-73
2024/01/08 06:29:17;;;;;;;8.13;6.05;;;;;;;-3.97;64.67;98907.59;5043755;28;20478;-73
2024/01/08 06:31:43;;;;;;;7.10;6.20;;;;;;;-3.79;65.05;98934.91;5045062;28;20108;-73
2024/01/08 06:34:09;;;;;;;10.00;6.03;;;;;;;-3.85;64.69;98939.88;5024805;28;20025;-73
2024/01/08 06:36:34;;;;;;;9.45;5.55;;;;;;;-4.02;64.67;98932.63;5031509;28;20037;-73
2024/01/08 06:39:00;;;;;;;8.73;5.90;;;;;;;-4.10;65.17;98940.34;5016672;28;20406;-73
2024/01/08 06:41:26;;;;;;;10.38;5.85;;;;;;;-3.97;65.06;98956.75;5019962;28;20075;-74
2024/01/08 06:43:51;;;;;;;8.48;5.95;;;;;;;-4.00;65.62;98957.84;5032793;28;20124;-75
2024/01/08 06:46:17;;;;;;;9.77;5.57;;;;;;;-4.29;65.09;98934.06;5015287;28;20116;-73
2024/01/08 06:48:42;;;;;;;10.02;7.13;;;;;;;-4.02;64.74;98961.56;5032884;28;20025;-73
2024/01/08 06:51:08;;;;;;;9.07;7.22;;;;;;;-3.98;65.13;98965.59;5033251;28;20029;-73
2024/01/08 06:53:33;;;;;;;10.55;7.30;;;;;;;-4.05;65.48;98964.44;5041662;28;20034;-73
2024/01/08 06:55:59;;;;;;;9.57;5.88;;;;;;;-4.39;64.56;98951.59;5031922;28;20413;-74
2024/01/08 06:58:24;;;;;;;9.40;5.50;;;;;;;-4.27;64.62;98958.44;5043003;28;20041;-73
2024/01/08 07:00:49;;;;;;;9.10;7.60;;;;;;;-4.11;64.88;98980.78;5019447;28;20030;-73
2024/01/08 07:03:15;;;;;;;9.05;6.10;;;;;;;-4.41;64.49;98950.91;5015072;28;20025;-73
2024/01/08 07:05:41;;;;;;;8.80;5.90;;;;;;;-4.34;64.39;98964.38;5037086;28;20039;-73
2024/01/08 07:08:07;;;;;;;11.93;7.82;;;;;;;-4.09;65.04;98974.44;5033989;28;20033;-73
2024/01/08 07:10:34;;;;;;;11.38;7.88;;;;;;;-4.08;65.18;98967.38;5030562;28;20101;-73
2024/01/08 07:12:59;;;;;;;11.65;8.05;;;;;;;-4.12;64.95;98973.84;5024697;28;20397;-73
2024/01/08 07:15:39;;;;;;;10.77;7.57;;;;;;;-4.23;65.37;98978.25;5042990;28;20029;-74
2024/01/08 07:18:05;;;;;;;7.88;5.25;;;;;;;-4.54;65.59;98966.06;5036170;28;20057;-73
2024/01/08 07:20:30;;;;;;;11.50;6.30;;;;;;;-4.56;65.23;98964.53;5020175;28;20060;-73
2024/01/08 07:22:55;;;;;;;9.88;6.15;;;;;;;-4.50;65.63;98980.59;5024086;28;20048;-73
2024/01/08 07:25:21;;;;;;;9.77;6.05;;;;;;;-4.61;65.46;98967.56;5041073;28;20025;-73
2024/01/08 07:27:47;;;;;;;9.50;6.03;;;;;;;-4.60;65.50;98958.72;5021772;28;20029;-72
2024/01/08 07:30:12;;;;;;;10.18;6.30;;;;;;;-4.51;64.97;98978.97;5013928;28;20492;-73
2024/01/08 07:32:38;;;;;;;9.10;6.32;;;;;;;-4.52;65.23;98974.66;5031106;28;20125;-73
2024/01/08 07:35:04;;;;;;;11.77;6.82;;;;;;;-4.51;65.13;98992.09;5038011;28;20025;-72
2024/01/08 07:37:29;;;;;;;13.25;6.97;;;;;;;-4.43;64.83;98989.63;5018599;28;20061;-72
2024/01/08 07:39:55;;;;;;;14.10;8.23;;;;;;;-4.53;64.76;98980.88;5027465;28;20027;-72
2024/01/08 07:42:20;;;;;;;13.43;8.68;;;;;;;-4.27;65.50;98997.88;5031346;28;20041;-72
2024/01/08 07:44:45;;;;;;;12.05;8.90;;;;;;;-4.30;64.51;98998.16;5032616;28;20029;-73
2024/01/08 07:47:11;;;;;;;12.30;7.63;;;;;;;-4.50;64.92;99000.78;5037910;28;20041;-74
2024/01/08 07:49:36;;;;;;;23.20;18.15;;;;;;;-4.49;64.70;98992.78;5042349;28;20075;-73
2024/01/08 07:52:02;;;;;;;20.98;11.75;;;;;;;-4.54;65.45;99004.66;5019245;28;20038;-73
2024/01/08 07:54:27;;;;;;;14.48;10.77;;;;;;;-4.39;64.95;99000.72;5037167;28;20075;-74
2024/01/08 07:56:53;;;;;;;17.48;10.45;;;;;;;-4.70;65.46;99002.50;5037174;28;20037;-74
2024/01/08 07:59:18;;;;;;;16.52;13.80;;;;;;;-4.50;65.34;99011.28;5020438;28;20485;-74
2024/01/08 08:01:43;;;;;;;15.38;12.38;;;;;;;-4.58;65.60;98998.84;5031059;28;20041;-74
2024/01/08 08:04:09;;;;;;;18.58;14.75;;;;;;;-4.47;65.13;99006.63;5035438;28;20135;-74
2024/01/08 08:06:34;;;;;;;20.70;15.00;;;;;;;-4.46;65.51;99008.31;5030916;28;20580;-74
2024/01/08 08:09:01;;;;;;;14.13;9.82;;;;;;;-4.61;65.95;99009.59;5030733;28;20026;-74
2024/01/08 08:11:27;;;;;;;13.05;10.70;;;;;;;-4.54;65.02;99010.75;5042504;28;20036;-74
2024/01/08 08:13:52;;;;;;;12.20;8.45;;;;;;;-4.58;65.18;99025.09;5040268;28;20063;-74
2024/01/08 08:16:18;;;;;;;13.10;9.38;;;;;;;-4.48;65.44;99019.91;5019964;28;20061;-73
2024/01/08 08:18:44;;;;;;;12.75;9.23;;;;;;;-4.51;65.18;99031.50;5033423;28;20389;-74
2024/01/08 08:21:10;;;;;;;15.63;10.82;;;;;;;-4.47;65.61;99025.03;5019003;28;20045;-74
2024/01/08 08:23:35;;;;;;;12.50;7.65;;;;;;;-4.67;65.62;99036.41;5034936;28;20029;-73
2024/01/08 08:26:00;;;;;;;11.75;9.02;;;;;;;-4.62;65.31;99028.94;5033382;28;20509;-73
2024/01/08 08:28:26;;;;;;;13.70;8.68;;;;;;;-4.68;65.69;99039.13;5040716;28;20029;-73
2024/01/08 08:30:52;;;;;;;13.65;9.18;;;;;;;-4.59;65.61;99031.31;5027576;28;20046;-74
2024/01/08 08:33:17;;;;;;;15.43;10.65;;;;;;;-4.58;65.75;99009.34;5038122;28;20029;-74
2024/01/08 08:35:43;;;;;;;15.38;10.98;;;;;;;-4.68;65.74;99016.31;5030992;28;20068;-73
2024/01/08 08:38:08;;;;;;;17.40;15.18;;;;;;;-4.51;65.96;99047.28;5042517;28;20148;-73
2024/01/08 08:40:34;;;;;;;14.75;12.13;;;;;;;-4.59;66.32;99044.44;5029128;28;20531;-73
2024/01/08 08:42:59;;;;;;;13.00;10.07;;;;;;;-4.85;65.84;98990.63;5029811;28;20108;-72
2024/01/08 08:45:25;;;;;;;13.70;8.38;;;;;;;-4.64;66.37;99036.13;5034008;28;20557;-72
2024/01/08 08:47:50;;;;;;;14.60;10.18;;;;;;;-4.38;65.34;99053.16;5043857;28;20474;-73
2024/01/08 08:50:16;;;;;;;15.05;11.25;;;;;;;-4.24;65.73;99065.97;5038627;28;20038;-73
2024/01/08 08:52:43;;;;;;;12.93;10.07;;;;;;;-4.34;65.25;99054.56;5042374;28;20079;-71
2024/01/08 08:55:09;;;;;;;17.48;11.13;;;;;;;-4.15;65.12;99063.53;5039003;28;20057;-73
2024/01/08 08:57:36;;;;;;;17.65;11.05;;;;;;;-4.05;65.15;99072.28;5041060;28;20024;-74
2024/01/08 09:00:01;;;;;;;14.50;11.02;;;;;;;-4.36;65.05;99051.22;5021323;28;20042;-73
2024/01/08 09:02:27;;;;;;;15.45;8.77;;;;;;;-4.49;65.66;99066.38;5024570;28;20082;-72
2024/01/08 09:04:53;;;;;;;13.57;9.52;;;;;;;-4.36;66.22;99072.25;5033733;28;20108;-73
2024/01/08 09:07:22;;;;;;;14.65;11.00;;;;;;;-4.38;65.78;99058.41;5038504;28;20032;-73
2024/01/08 09:09:49;;;;;;;13.70;11.65;;;;;;;-4.21;65.71;99070.13;5038796;28;20045;-73
2024/01/08 09:12:14;;;;;;;13.95;11.77;;;;;;;-4.31;65.38;99080.59;5037729;28;20077;-73
2024/01/08 09:14:40;;;;;;;16.10;10.05;;;;;;;-4.49;66.55;99068.16;5039106;28;20033;-73
2024/01/08 09:17:05;;;;;;;15.70;12.75;;;;;;;-4.45;66.39;99067.78;5034168;28;20544;-73
2024/01/08 09:19:31;;;;;;;20.20;15.02;;;;;;;-4.37;66.21;99057.47;5017934;28;20112;-73
2024/01/08 09:21:56;;;;;;;16.35;11.38;;;;;;;-4.30;66.45;99071.75;5045997;28;20036;-73
2024/01/08 09:24:22;;;;;;;24.30;13.35;;;;;;;-4.12;66.31;99087.75;5033481;28;20037;-73
2024/01/08 09:26:47;;;;;;;18.90;11.63;;;;;;;-4.13;66.51;99080.00;5026906;28;20153;-73
2024/01/08 09:29:12;;;;;;;21.75;16.35;;;;;;;-3.87;66.26;99073.31;5036577;28;20485;-73
2024/01/08 09:31:38;;;;;;;14.90;11.50;;;;;;;-3.86;66.50;99103.94;5048787;28;20100;-73
2024/01/08 09:34:04;;;;;;;15.15;9.60;;;;;;;-3.93;66.72;99100.16;5043593;28;20036;-73
2024/01/08 09:36:29;;;;;;;14.45;11.55;;;;;;;-3.76;66.31;99089.03;5018290;28;20665;-73
2024/01/08 09:38:55;;;;;;;18.45;11.88;;;;;;;-3.65;66.52;99086.31;5041365;28;20045;-73
2024/01/08 09:41:21;;;;;;;14.30;9.82;;;;;;;-3.70;66.40;99083.22;5034306;28;20033;-73
2024/01/08 09:43:47;;;;;;;16.65;10.10;;;;;;;-3.65;66.45;99099.47;5041903;28;20052;-73
2024/01/08 09:46:15;;;;;;;14.35;11.50;;;;;;;-3.60;66.40;99087.56;5042016;28;20026;-73
2024/01/08 09:48:42;;;;;;;17.17;11.55;;;;;;;-3.57;66.01;99105.72;5034707;28;20037;-72
2024/01/08 09:51:07;;;;;;;15.70;11.68;;;;;;;-3.61;65.53;99079.78;5017600;28;20481;-72
2024/01/08 09:53:33;;;;;;;13.50;11.82;;;;;;;-3.55;65.91;99089.81;5026515;28;20038;-72
2024/01/08 09:55:59;;;;;;;13.65;9.65;;;;;;;-3.61;66.10;99117.47;5032514;28;20033;-73
2024/01/08 09:58:25;;;;;;;16.90;9.50;;;;;;;-3.52;65.90;99115.84;5015197;28;20466;-72
2024/01/08 10:00:51;;;;;;;14.40;11.48;;;;;;;-3.28;65.61;99112.88;5039946;28;20378;-73
2024/01/08 10:03:17;;;;;;;13.98;9.30;;;;;;;-3.43;65.36;99119.50;5033105;28;20044;-73
2024/01/08 10:05:42;;;;;;;16.50;9.10;;;;;;;-3.57;65.68;99129.41;5018670;28;20447;-73
2024/01/08 10:08:08;;;;;;;13.05;10.57;;;;;;;-3.56;65.44;99088.97;5037327;28;20037;-73
2024/01/08 10:10:33;;;;;;;16.27;11.15;;;;;;;-3.16;64.96;99117.91;5017764;28;20086;-73
2024/01/08 10:12:59;;;;;;;13.52;10.45;;;;;;;-3.07;64.76;99119.72;5040309;28;20096;-73
2024/01/08 10:15:25;;;;;;;15.35;9.38;;;;;;;-3.09;64.15;99124.28;5003979;28;20026;-73
2024/01/08 10:17:51;;;;;;;13.95;9.05;;;;;;;-3.17;64.60;99108.31;5040536;28;20573;-73
2024/01/08 10:20:17;;;;;;;15.40;10.15;;;;;;;-3.09;64.55;99119.03;5034531;28;20032;-73
2024/01/08 10:22:44;;;;;;;15.88;10.48;;;;;;;-2.99;63.83;99090.88;5046102;28;20041;-73
2024/01/08 10:25:11;;;;;;;20.50;10.43;;;;;;;-2.92;63.81;99102.53;5025556;28;20033;-73
2024/01/08 10:27:36;;;;;;;16.27;9.73;;;;;;;-2.78;63.51;99121.56;5041708;28;20171;-72
2024/01/08 10:30:03;;;;;;;14.45;9.38;;;;;;;-3.05;63.75;99125.66;5023676;28;20508;-73
2024/01/08 10:32:29;;;;;;;18.35;10.23;;;;;;;-3.11;63.71;99105.16;5032298;28;20033;-73
2024/01/08 10:34:55;;;;;;;14.18;10.38;;;;;;;-3.15;63.31;99087.94;5044425;28;20040;-73
2024/01/08 10:37:21;;;;;;;13.60;9.48;;;;;;;-3.21;63.40;99106.94;5040943;28;20079;-73
2024/01/08 10:39:49;;;;;;;13.98;11.23;;;;;;;-3.06;63.44;99110.00;5049475;28;20069;-73
2024/01/08 10:42:15;;;;;;;14.38;9.80;;;;;;;-3.31;63.90;99100.78;5019690;28;20041;-73
2024/01/08 10:44:40;;;;;;;15.07;10.40;;;;;;;-3.23;64.22;99110.66;5037909;28;20452;-73
2024/01/08 10:47:09;;;;;;;12.35;10.02;;;;;;;-3.22;64.31;99118.41;5016156;28;20137;-73
2024/01/08 10:49:38;;;;;;;19.38;11.00;;;;;;;-3.31;64.42;99092.09;5038633;28;20064;-73
2024/01/08 10:52:26;;;;;;;15.60;12.60;;;;;;;-2.97;63.97;99107.41;5035434;28;20506;-73
2024/01/08 10:54:54;;;;;;;17.17;9.93;;;;;;;-3.08;64.29;99110.13;5016127;28;20052;-73
2024/01/08 10:57:21;;;;;;;14.55;9.70;;;;;;;-3.07;64.44;99095.16;5021367;28;20029;-73
2024/01/08 10:59:46;;;;;;;16.15;10.10;;;;;;;-2.88;64.03;99109.19;5022677;28;20034;-73
2024/01/08 11:02:14;;;;;;;18.35;10.63;;;;;;;-2.85;64.42;99100.19;5024977;28;20405;-74
2024/01/08 11:04:42;;;;;;;15.13;12.77;;;;;;;-2.51;63.63;99090.03;5043785;28;20096;-73
2024/01/08 11:07:10;;;;;;;15.57;10.60;;;;;;;-2.62;64.02;99092.84;5030187;28;20481;-73
2024/01/08 11:09:35;;;;;;;17.75;11.43;;;;;;;-2.44;63.60;99099.06;5027371;28;20370;-73
2024/01/08 11:12:01;;;;;;;17.05;10.43;;;;;;;-2.43;63.56;99095.47;5031547;28;20036;-72
2024/01/08 11:14:28;;;;;;;16.15;10.27;;;;;;;-2.41;63.26;99094.34;5016518;28;20044;-73
2024/01/08 11:16:54;;;;;;;16.23;12.20;;;;;;;-2.32;63.75;99095.31;5032202;28;20440;-73
2024/01/08 11:19:19;;;;;;;16.73;10.23;;;;;;;-2.43;63.40;99100.72;5038612;28;20029;-73
2024/01/08 11:21:48;;;;;;;16.85;9.93;;;;;;;-2.50;63.44;99097.84;5037629;28;20061;-73